HSSS Airport Information

Runway Information
Runway 18 Length 9751 ft width 148 ft
Elevation 1265 ft Threshold 0 ft Heading 177
Runway 36 Length 9751 ft Width 148 ft
Elevation 1260 ft Threshold 0 ft Heading 357
Airport Frequencies
Type APP Name Khartoum A Frequency 124.7 MHZ
Type EMR Name FIRE Frequency 121.9 MHZ
Type North Area Name North Sect Frequency 125.4 MHZ
Type South Area Name South Sect Frequency 127.3 MHZ
Type TWR Name Khartoum T Frequency 119.2 MHZ
Airport Navaids
Type VOR-DME Name Khartoum Frequency 112100 KHZ
Airport Weather Information & NOTAM
ADDS - METARS form results

(0420 UTC 09 December 2019)
Data provider http://aviationweather.gov/metar/data/
 
METAR text: HSSS 090400Z 33010KT CAVOK 18/00 Q1014 NOSIG
Conditions at: HSSS (KHARTOUM (CIV/MI, SD) observed 0400 UTC 09 December 2019
Temperature: 18.0°C (64°F)
Dewpoint: 0.0°C (32°F) [RH = 30%]
Pressure (altimeter): 29.94 inches Hg (1014.0 mb)
Winds: from the NNW (330 degrees) at 12 MPH (10 knots; 5.1 m/s)
Visibility: 6 or more miles (10+ km)
Ceiling: ceiling and visibility are OK
Clouds: unknown
Weather: no significant weather observed at this time

METAR text: HSSS 090330Z 35010KT CAVOK 19/00 Q1014 NOSIG
Conditions at: HSSS (KHARTOUM (CIV/MI, SD) observed 0330 UTC 09 December 2019
Temperature: 19.0°C (66°F)
Dewpoint: 0.0°C (32°F) [RH = 28%]
Pressure (altimeter): 29.94 inches Hg (1014.0 mb)
Winds: from the N (350 degrees) at 12 MPH (10 knots; 5.1 m/s)
Visibility: 6 or more miles (10+ km)
Ceiling: ceiling and visibility are OK
Clouds: unknown
Weather: no significant weather observed at this time

Forecast for: HSSS (KHARTOUM (CIV/MI, SD)
Text: HSSS 082300Z 0900/1006 36012G25KT CAVOK
Forecast period: 0000 UTC 09 December 2019 to 0600 UTC 10 December 2019
Forecast type: FROM: standard forecast or significant change
Winds: from the N (360 degrees) at 14 MPH (12 knots; 6.2 m/s)
gusting to 29 MPH (25 knots; 12.9 m/s)
Visibility: 6 or more miles 10+ km)
Ceiling: unknown
Clouds: missing
Weather: NSW  (no significant weather)